Time;durP1;ratioP1;P1;durP2;ratioP2;P2;SDS_P1;SDS_P2;PMS_P1;PMS_P2;Temp;Humidity;BMP_temperature;BMP_pressure;BME280_temperature;BME280_humidity;BME280_pressure;Samples;Min_cycle;Max_cycle;Signal;HPM_P1;HPM_P2
2021/06/13 00:01:22;;;;;;;13.83;6.60;;;;;;;14.19;99.24;99666.37;1780474;79;20828;-88
2021/06/13 00:03:49;;;;;;;14.18;6.78;;;;;;;14.13;98.69;99666.33;1787289;79;20957;-90
2021/06/13 00:06:14;;;;;;;9.75;5.97;;;;;;;14.14;97.46;99670.63;1750318;80;21120;-86
2021/06/13 00:08:40;;;;;;;11.45;6.22;;;;;;;14.08;98.00;99687.33;1774504;80;20902;-86
2021/06/13 00:11:06;;;;;;;12.80;6.22;;;;;;;14.17;97.65;99675.56;1782997;80;21068;-86
2021/06/13 00:13:32;;;;;;;12.15;6.35;;;;;;;14.20;96.68;99693.77;1784475;80;21195;-87
2021/06/13 00:15:57;;;;;;;12.95;6.35;;;;;;;14.12;96.76;99680.60;1783421;80;21227;-87
2021/06/13 00:18:24;;;;;;;12.37;6.12;;;;;;;14.20;96.16;99696.42;1781933;80;21831;-89
2021/06/13 00:20:50;;;;;;;13.10;5.50;;;;;;;14.21;96.31;99694.06;1780642;80;21033;-89
2021/06/13 00:23:15;;;;;;;12.98;5.72;;;;;;;14.14;95.66;99690.55;1782705;80;21374;-88
2021/06/13 00:25:41;;;;;;;11.38;5.62;;;;;;;14.05;95.87;99693.83;1782224;80;20941;-90
2021/06/13 00:28:07;;;;;;;10.72;5.45;;;;;;;14.08;96.00;99698.76;1782875;80;20913;-89
2021/06/13 00:30:33;;;;;;;12.03;5.80;;;;;;;14.03;95.48;99695.02;1784653;80;20933;-88
2021/06/13 00:32:59;;;;;;;11.35;5.20;;;;;;;13.97;95.96;99696.11;1783699;80;20984;-88
2021/06/13 00:35:25;;;;;;;13.83;5.55;;;;;;;13.97;95.53;99694.78;1783229;80;21719;-88
2021/06/13 00:37:51;;;;;;;10.55;5.45;;;;;;;13.91;95.83;99691.55;1783093;80;20886;-87
2021/06/13 00:40:18;;;;;;;12.63;5.78;;;;;;;13.95;95.53;99694.64;1783554;80;21092;-87
2021/06/13 00:42:44;;;;;;;12.37;5.37;;;;;;;14.00;95.45;99691.74;1782111;80;21025;-88
2021/06/13 00:45:10;;;;;;;9.95;5.30;;;;;;;14.04;94.77;99694.83;1784374;80;21316;-86
2021/06/13 00:47:37;;;;;;;12.93;5.37;;;;;;;14.03;94.52;99691.03;1783604;80;20977;-85
2021/06/13 00:50:06;;;;;;;15.65;5.80;;;;;;;13.95;94.67;99695.97;1781138;80;21784;-86
2021/06/13 00:52:32;;;;;;;16.20;5.60;;;;;;;14.02;94.50;99693.39;1784205;80;21961;-85
2021/06/13 00:54:57;;;;;;;14.15;5.28;;;;;;;13.98;94.12;99696.43;1784931;80;21166;-85
2021/06/13 00:57:23;;;;;;;12.35;5.37;;;;;;;13.93;94.05;99692.17;1785465;80;20862;-87
2021/06/13 00:59:49;;;;;;;10.75;4.78;;;;;;;13.95;93.58;99697.30;1784450;80;21034;-88
2021/06/13 01:02:15;;;;;;;10.68;4.95;;;;;;;13.96;93.50;99701.09;1775541;80;21030;-87
2021/06/13 01:04:40;;;;;;;11.10;5.40;;;;;;;13.93;93.36;99694.83;1783135;80;21066;-88
2021/06/13 01:07:29;;;;;;;13.23;5.40;;;;;;;13.81;93.71;99695.01;1783654;80;21538;-89
2021/06/13 01:10:01;;;;;;;14.93;5.10;;;;;;;13.83;93.56;99699.13;1782112;80;21441;-87
2021/06/13 01:12:30;;;;;;;16.40;5.08;;;;;;;13.78;93.90;99711.31;1778872;80;21936;-86
2021/06/13 01:15:11;;;;;;;17.62;5.42;;;;;;;13.73;94.02;99705.23;1783044;80;21606;-85
2021/06/13 01:18:00;;;;;;;18.57;5.20;;;;;;;13.72;94.36;99702.77;1784411;80;21048;-86
2021/06/13 01:20:32;;;;;;;17.07;5.60;;;;;;;13.65;94.42;99704.84;1747319;80;21044;-86
2021/06/13 01:23:39;;;;;;;11.88;5.35;;;;;;;13.67;94.47;99700.68;1785337;80;21687;-86
2021/06/13 01:26:55;;;;;;;12.63;5.55;;;;;;;13.62;94.44;99706.55;1780882;80;21312;-87
2021/06/13 01:29:38;;;;;;;15.75;5.55;;;;;;;13.60;94.54;99707.25;1783043;80;21037;-87
2021/06/13 01:32:11;;;;;;;14.30;5.42;;;;;;;13.45;95.08;99713.93;1783461;80;21020;-87
2021/06/13 01:34:51;;;;;;;16.80;6.17;;;;;;;13.52;94.92;99702.58;1775415;80;21552;-87
2021/06/13 01:37:18;;;;;;;14.05;6.30;;;;;;;13.57;94.85;99694.36;1783131;80;21136;-87
2021/06/13 01:39:46;;;;;;;16.32;5.80;;;;;;;13.49;95.19;99709.58;1785491;80;21955;-87
2021/06/13 01:42:12;;;;;;;15.85;5.92;;;;;;;13.52;95.41;99696.75;1777344;80;21060;-86
2021/06/13 01:44:39;;;;;;;12.85;5.78;;;;;;;13.56;95.03;99692.70;1745097;80;20954;-87
2021/06/13 01:47:06;;;;;;;12.10;5.45;;;;;;;13.54;94.98;99695.24;1784002;80;21156;-87
2021/06/13 01:49:31;;;;;;;16.07;5.78;;;;;;;13.46;95.56;99700.96;1769632;80;21100;-86
2021/06/13 01:51:57;;;;;;;13.32;6.28;;;;;;;13.49;95.80;99696.31;1785681;80;21765;-88
2021/06/13 01:54:23;;;;;;;11.50;5.87;;;;;;;13.45;95.62;99703.31;1786553;80;21618;-88
2021/06/13 01:56:50;;;;;;;13.03;6.10;;;;;;;13.50;95.38;99708.55;1787051;80;20874;-88
2021/06/13 01:59:17;;;;;;;16.57;5.85;;;;;;;13.45;95.22;99707.30;1785807;80;21085;-87
2021/06/13 02:01:43;;;;;;;13.20;5.90;;;;;;;13.38;94.71;99694.97;1784516;80;21618;-88
2021/06/13 02:04:08;;;;;;;12.28;5.90;;;;;;;13.34;94.93;99705.61;1755366;80;21007;-85
2021/06/13 02:06:37;;;;;;;14.23;5.90;;;;;;;13.33;95.22;99691.99;1774957;79;20957;-86
2021/06/13 02:09:05;;;;;;;15.45;6.08;;;;;;;13.32;95.07;99693.02;1779607;79;21104;-86
2021/06/13 02:11:30;;;;;;;15.30;5.75;;;;;;;13.28;94.93;99694.72;1782882;80;21138;-86
2021/06/13 02:13:56;;;;;;;14.18;5.83;;;;;;;13.21;94.89;99702.27;1775879;80;21351;-87
2021/06/13 02:16:22;;;;;;;13.93;5.55;;;;;;;13.17;95.11;99703.12;1779511;79;20923;-88
2021/06/13 02:18:49;;;;;;;16.12;5.87;;;;;;;13.21;94.67;99711.03;1773705;79;22335;-88
2021/06/13 02:21:14;;;;;;;21.90;5.62;;;;;;;13.19;94.59;99702.94;1766013;80;21847;-88
2021/06/13 02:23:45;;;;;;;16.17;5.62;;;;;;;13.13;94.62;99705.84;1770988;80;20947;-88
2021/06/13 02:26:09;;;;;;;16.48;5.45;;;;;;;13.15;94.15;99713.09;1770682;80;21241;-87
2021/06/13 02:28:41;;;;;;;13.73;5.53;;;;;;;13.16;94.23;99714.75;1771592;79;21454;-87
2021/06/13 02:31:07;;;;;;;13.90;5.50;;;;;;;13.20;93.88;99716.01;1770645;80;20985;-87
2021/06/13 02:33:34;;;;;;;14.20;5.47;;;;;;;13.17;93.53;99719.02;1776893;80;21030;-87
2021/06/13 02:36:00;;;;;;;13.30;5.33;;;;;;;13.07;92.85;99720.64;1780684;80;21002;-88
2021/06/13 02:38:26;;;;;;;15.68;5.58;;;;;;;13.12;92.88;99725.39;1779422;80;21441;-87
2021/06/13 02:40:53;;;;;;;13.83;5.45;;;;;;;13.10;93.05;99725.57;1770679;80;20989;-86
2021/06/13 02:43:19;;;;;;;10.63;5.05;;;;;;;13.07;92.95;99723.80;1773948;80;21524;-86
2021/06/13 02:45:45;;;;;;;17.48;5.28;;;;;;;13.12;92.74;99724.06;1775923;80;21130;-87
2021/06/13 02:48:12;;;;;;;17.17;5.72;;;;;;;13.03;92.50;99713.23;1779765;80;20845;-87
2021/06/13 02:50:38;;;;;;;15.23;5.30;;;;;;;12.97;92.77;99733.84;1773248;80;21091;-86
2021/06/13 02:53:45;;;;;;;18.85;5.83;;;;;;;12.88;92.24;99732.61;1779640;80;21067;-87
2021/06/13 02:56:48;;;;;;;17.55;4.90;;;;;;;12.96;92.44;99730.86;1784048;79;21082;-87
2021/06/13 02:59:37;;;;;;;16.02;5.95;;;;;;;12.86;92.20;99733.78;1772052;80;20959;-86
2021/06/13 03:02:09;;;;;;;12.98;5.00;;;;;;;12.88;92.83;99736.59;1782225;79;21839;-87
2021/06/13 03:04:35;;;;;;;14.30;4.70;;;;;;;12.90;92.27;99743.84;1770801;80;21085;-89
2021/06/13 03:07:01;;;;;;;15.40;5.08;;;;;;;12.90;91.99;99750.98;1772532;79;21042;-88
2021/06/13 03:09:29;;;;;;;15.88;4.87;;;;;;;12.85;92.51;99749.35;1781983;80;21007;-86
2021/06/13 03:11:55;;;;;;;12.18;4.97;;;;;;;12.82;92.32;99754.53;1779119;80;21087;-87
2021/06/13 03:14:22;;;;;;;12.65;4.58;;;;;;;12.78;92.51;99761.19;1777093;80;20995;-87
2021/06/13 03:16:48;;;;;;;10.98;4.97;;;;;;;12.83;92.25;99751.37;1781345;79;21168;-87
2021/06/13 03:19:14;;;;;;;8.33;4.45;;;;;;;12.88;92.30;99755.13;1784311;80;21925;-87
2021/06/13 03:21:40;;;;;;;18.73;5.50;;;;;;;12.75;92.10;99758.89;1726992;80;21130;-88
2021/06/13 03:24:06;;;;;;;12.75;4.83;;;;;;;12.70;92.09;99757.30;1774840;80;20894;-87
2021/06/13 03:26:32;;;;;;;17.07;5.10;;;;;;;12.78;91.60;99778.41;1777669;80;21106;-85
2021/06/13 03:28:58;;;;;;;13.88;4.97;;;;;;;12.81;91.68;99779.37;1779685;79;21039;-86
2021/06/13 03:31:25;;;;;;;15.35;4.62;;;;;;;12.81;91.33;99784.67;1773558;80;21135;-87
2021/06/13 03:33:52;;;;;;;12.58;4.58;;;;;;;12.76;91.32;99773.80;1746542;79;21799;-87
2021/06/13 03:36:18;;;;;;;;;;;;;;;12.86;91.36;99787.59;1779727;80;21245;-87
2021/06/13 03:38:44;;;;;;;11.53;4.20;;;;;;;12.81;90.77;99788.65;1776179;79;20505;-88
2021/06/13 03:41:10;;;;;;;12.95;5.00;;;;;;;12.89;90.84;99773.98;1776590;80;21003;-88
2021/06/13 03:43:36;;;;;;;11.43;4.42;;;;;;;12.86;90.35;99771.70;1749360;79;21085;-88
2021/06/13 03:46:01;;;;;;;10.48;4.33;;;;;;;12.80;90.73;99805.53;1779041;80;20868;-88
2021/06/13 03:48:31;;;;;;;17.20;4.87;;;;;;;12.82;90.82;99784.16;1774858;80;20962;-87
2021/06/13 03:50:57;;;;;;;12.80;4.40;;;;;;;12.81;90.52;99797.92;1776029;80;21034;-88
2021/06/13 03:53:23;;;;;;;13.10;4.37;;;;;;;12.80;90.76;99789.64;1779124;79;21015;-87
2021/06/13 03:55:52;;;;;;;14.23;4.12;;;;;;;12.82;90.64;99806.69;1775424;80;21172;-87
2021/06/13 03:58:17;;;;;;;11.40;4.58;;;;;;;12.88;90.36;99798.86;1755923;79;21105;-87
2021/06/13 04:00:43;;;;;;;16.35;4.58;;;;;;;12.79;90.29;99788.52;1775307;80;20962;-88
2021/06/13 04:03:09;;;;;;;10.70;4.55;;;;;;;12.78;90.54;99800.93;1779693;79;20931;-87
2021/06/13 04:05:35;;;;;;;11.57;4.30;;;;;;;12.83;90.22;99795.91;1776249;79;21130;-88
2021/06/13 04:08:01;;;;;;;15.83;4.50;;;;;;;12.73;90.51;99804.63;1782874;79;22090;-88
2021/06/13 04:10:27;;;;;;;16.93;4.62;;;;;;;12.77;90.39;99823.16;1778804;80;21135;-86
2021/06/13 04:12:52;;;;;;;15.00;4.62;;;;;;;12.75;90.46;99809.23;1771293;80;20903;-88
2021/06/13 04:15:20;;;;;;;12.75;4.42;;;;;;;12.85;90.55;99813.80;1782956;79;20931;-87
2021/06/13 04:17:46;;;;;;;16.27;4.97;;;;;;;12.75;90.71;99815.86;1765167;80;21222;-87
2021/06/13 04:20:13;;;;;;;14.50;4.60;;;;;;;12.80;90.65;99804.73;1778307;79;21049;-87
2021/06/13 04:22:39;;;;;;;16.80;4.50;;;;;;;12.86;89.99;99823.38;1781844;80;21324;-88
2021/06/13 04:25:11;;;;;;;14.53;5.33;;;;;;;12.86;90.12;99808.80;1784727;79;21086;-88
2021/06/13 04:27:37;;;;;;;15.05;4.40;;;;;;;12.83;90.32;99821.08;1776562;80;21022;-88
2021/06/13 04:30:05;;;;;;;16.40;4.83;;;;;;;12.87;89.71;99813.62;1782644;79;21011;-89
2021/06/13 04:32:31;;;;;;;15.35;4.67;;;;;;;12.79;90.22;99815.84;1781325;79;21973;-89
2021/06/13 04:34:57;;;;;;;16.12;4.60;;;;;;;12.93;89.61;99815.04;1777358;80;21113;-85
2021/06/13 04:37:23;;;;;;;14.90;4.80;;;;;;;13.01;89.56;99814.66;1773859;80;20990;-86
2021/06/13 04:39:48;;;;;;;13.00;4.60;;;;;;;12.99;89.15;99820.13;1779695;80;20903;-87
2021/06/13 04:42:14;;;;;;;17.50;4.80;;;;;;;13.04;89.47;99826.22;1775442;80;20982;-87
2021/06/13 04:44:40;;;;;;;13.65;4.33;;;;;;;13.03;88.94;99828.53;1766912;79;21015;-87
2021/06/13 04:47:05;;;;;;;14.00;4.55;;;;;;;13.05;89.01;99833.99;1770948;79;20938;-87
2021/06/13 04:49:32;;;;;;;12.88;4.35;;;;;;;13.02;89.20;99844.11;1777738;80;20907;-88
2021/06/13 04:51:58;;;;;;;16.17;4.67;;;;;;;13.08;89.20;99837.61;1782689;79;21070;-88
2021/06/13 04:54:41;;;;;;;14.03;4.40;;;;;;;13.02;89.13;99838.81;1780734;80;21616;-87
2021/06/13 04:57:36;;;;;;;16.87;4.33;;;;;;;13.17;88.78;99854.75;1778343;79;21269;-88
2021/06/13 05:00:03;;;;;;;14.68;4.47;;;;;;;13.09;89.08;99847.70;1777226;80;21105;-88
2021/06/13 05:02:29;;;;;;;12.35;4.35;;;;;;;13.13;88.08;99846.34;1775610;80;21093;-88
2021/06/13 05:04:55;;;;;;;12.43;4.60;;;;;;;13.12;88.52;99848.67;1774693;79;21767;-87
2021/06/13 05:07:22;;;;;;;22.77;5.22;;;;;;;13.31;88.23;99839.88;1778306;79;20963;-89
2021/06/13 05:09:48;;;;;;;14.33;4.85;;;;;;;13.32;87.96;99852.14;1781852;80;21162;-88
2021/06/13 05:12:14;;;;;;;12.43;4.08;;;;;;;13.22;87.59;99858.52;1781354;79;20947;-89
2021/06/13 05:14:40;;;;;;;13.08;4.40;;;;;;;13.22;87.69;99842.61;1777094;79;20899;-89
2021/06/13 05:17:06;;;;;;;16.07;4.47;;;;;;;13.10;88.31;99865.27;1778847;80;20869;-90
2021/06/13 05:19:32;;;;;;;11.22;4.17;;;;;;;13.22;88.55;99842.61;1781932;79;21152;-90
2021/06/13 05:21:57;;;;;;;13.32;4.35;;;;;;;13.07;88.57;99851.05;1779034;79;21750;-90
2021/06/13 05:24:23;;;;;;;11.83;4.00;;;;;;;13.01;89.23;99830.05;1776298;80;20921;-92
2021/06/13 05:26:49;;;;;;;14.60;4.42;;;;;;;12.97;89.62;99891.55;1781891;80;21599;-88
2021/06/13 05:29:14;;;;;;;14.95;4.83;;;;;;;13.01;90.50;99870.31;1771666;79;20927;-87
2021/06/13 05:31:40;;;;;;;17.12;4.85;;;;;;;13.18;91.09;99854.58;1781302;80;20909;-89
2021/06/13 05:34:06;;;;;;;13.72;4.22;;;;;;;13.08;91.09;99872.07;1779801;80;21428;-89
2021/06/13 05:36:32;;;;;;;14.03;5.25;;;;;;;13.22;91.34;99866.48;1774927;80;21088;-90
2021/06/13 05:38:57;;;;;;;11.75;4.50;;;;;;;13.03;91.61;99882.88;1767537;79;20985;-85
2021/06/13 05:41:23;;;;;;;14.60;4.35;;;;;;;13.31;91.64;99871.70;1771145;80;20888;-86
2021/06/13 05:43:50;;;;;;;18.35;5.17;;;;;;;13.19;91.35;99882.75;1773025;80;21316;-86
2021/06/13 05:46:19;;;;;;;16.87;4.67;;;;;;;13.18;92.37;99877.63;1774608;79;22071;-86
2021/06/13 05:48:43;;;;;;;;;;;;;;;13.25;92.23;99884.68;1776455;79;21275;-86
2021/06/13 05:51:09;;;;;;;11.93;4.10;;;;;;;13.31;91.81;99890.26;1781369;80;20137;-84
2021/06/13 05:53:35;;;;;;;15.10;4.70;;;;;;;13.25;91.16;99893.96;1771235;79;22008;-86
2021/06/13 05:56:00;;;;;;;14.95;4.80;;;;;;;13.24;91.53;99884.34;1778977;80;21034;-86
2021/06/13 05:58:26;;;;;;;14.80;5.10;;;;;;;13.17;91.86;99888.71;1780174;79;22063;-88
2021/06/13 06:00:52;;;;;;;13.83;4.90;;;;;;;13.14;92.08;99898.34;1773600;79;21109;-85
2021/06/13 06:03:18;;;;;;;13.55;4.70;;;;;;;13.34;92.56;99892.58;1778202;80;21133;-84
2021/06/13 06:05:43;;;;;;;14.28;4.97;;;;;;;13.31;92.26;99891.58;1777811;79;21076;-85
2021/06/13 06:08:09;;;;;;;14.58;5.17;;;;;;;13.28;91.65;99896.25;1769716;80;20879;-84
2021/06/13 06:10:36;;;;;;;20.77;4.80;;;;;;;13.19;92.07;99942.41;1775116;80;21104;-87
2021/06/13 06:13:03;;;;;;;14.60;4.78;;;;;;;13.27;91.46;99911.83;1778780;79;20997;-90
2021/06/13 06:15:33;;;;;;;16.23;4.90;;;;;;;13.31;90.88;99898.22;1781739;79;21242;-86
2021/06/13 06:17:59;;;;;;;12.85;4.05;;;;;;;13.17;91.33;99927.67;1775671;79;21026;-84
2021/06/13 06:20:26;;;;;;;16.80;4.90;;;;;;;13.16;91.24;99895.52;1773718;79;20877;-87
2021/06/13 06:22:52;;;;;;;16.37;4.80;;;;;;;13.19;90.87;99911.91;1777216;79;21479;-86
2021/06/13 06:25:18;;;;;;;15.70;4.53;;;;;;;13.25;91.28;99909.87;1773790;79;20919;-84
2021/06/13 06:27:44;;;;;;;17.48;4.95;;;;;;;13.29;90.75;99924.40;1776710;79;20985;-84
2021/06/13 06:30:13;;;;;;;17.12;4.65;;;;;;;13.45;89.50;99919.98;1773991;79;21127;-85
2021/06/13 06:32:39;;;;;;;14.50;4.70;;;;;;;13.50;90.03;99932.23;1775916;79;21097;-84
2021/06/13 06:35:07;;;;;;;16.90;4.85;;;;;;;13.64;88.23;99917.30;1777244;79;21752;-86
2021/06/13 06:37:34;;;;;;;13.62;4.35;;;;;;;13.73;87.82;99922.03;1779124;79;21077;-85
2021/06/13 06:40:00;;;;;;;15.93;4.50;;;;;;;13.96;87.84;99934.70;1777121;79;20994;-86
2021/06/13 06:42:26;;;;;;;12.53;4.70;;;;;;;14.08;87.30;99923.13;1774789;79;20942;-84
2021/06/13 06:44:53;;;;;;;15.28;4.67;;;;;;;13.89;86.55;99940.44;1776439;79;20967;-86
2021/06/13 06:47:38;;;;;;;16.37;4.87;;;;;;;14.08;86.67;99927.11;1778247;79;21345;-86
2021/06/13 06:50:17;;;;;;;17.62;5.30;;;;;;;14.11;85.43;99948.50;1776476;79;20995;-87
2021/06/13 06:52:43;;;;;;;16.97;4.47;;;;;;;14.12;85.35;99919.59;1776523;79;21164;-91
2021/06/13 06:55:09;;;;;;;14.90;4.55;;;;;;;14.13;85.22;99938.50;1778904;79;21081;-89
2021/06/13 06:57:37;;;;;;;17.27;4.50;;;;;;;14.28;84.72;99935.33;1775037;79;21527;-90
2021/06/13 07:00:06;;;;;;;13.00;4.58;;;;;;;14.21;84.06;99930.42;1777588;79;20967;-89
2021/06/13 07:05:05;;;;;;;14.53;4.70;;;;;;;14.43;83.95;99933.14;1764030;79;21527;-85
2021/06/13 07:07:31;;;;;;;16.35;5.05;;;;;;;14.45;83.47;99927.97;1774497;80;21121;-89
2021/06/13 07:09:56;;;;;;;14.80;4.35;;;;;;;14.54;82.99;99931.31;1777097;79;21125;-87
2021/06/13 07:12:25;;;;;;;14.43;4.70;;;;;;;14.69;83.08;99929.47;1776064;80;21014;-84
2021/06/13 07:14:49;;;;;;;;;;;;;;;14.71;82.70;99942.09;1781082;79;21272;-84
2021/06/13 07:17:15;;;;;;;15.80;4.65;;;;;;;14.83;82.29;99923.78;1775771;79;20126;-83
2021/06/13 07:19:41;;;;;;;15.72;4.95;;;;;;;14.84;82.37;99945.89;1775356;79;20931;-83
2021/06/13 07:22:07;;;;;;;19.90;4.65;;;;;;;14.87;82.62;99937.55;1777425;79;21687;-81
2021/06/13 07:24:32;;;;;;;16.25;4.87;;;;;;;14.93;82.09;99953.23;1779950;79;22893;-82
2021/06/13 07:26:58;;;;;;;13.20;4.50;;;;;;;15.03;81.31;99949.23;1776542;79;21258;-82
2021/06/13 07:29:24;;;;;;;17.77;4.70;;;;;;;14.85;81.30;99951.51;1776680;80;20903;-83
2021/06/13 07:31:49;;;;;;;16.50;4.30;;;;;;;14.97;81.08;99955.31;1778111;79;22067;-81
2021/06/13 07:34:16;;;;;;;17.00;4.87;;;;;;;15.16;80.54;99948.53;1774934;79;21026;-85
2021/06/13 07:36:42;;;;;;;17.33;4.57;;;;;;;15.03;80.54;99951.90;1776909;79;21362;-83
2021/06/13 07:39:09;;;;;;;15.90;4.72;;;;;;;15.03;79.80;99964.38;1774646;79;21043;-84
2021/06/13 07:41:34;;;;;;;17.30;4.55;;;;;;;15.13;80.19;99952.09;1777204;79;21105;-81
2021/06/13 07:44:00;;;;;;;14.58;4.42;;;;;;;15.03;79.46;99967.05;1781242;79;20947;-85
2021/06/13 07:46:26;;;;;;;13.15;4.62;;;;;;;15.19;79.24;99987.23;1776297;79;20884;-83
2021/06/13 07:49:13;;;;;;;17.95;4.90;;;;;;;15.44;79.39;99964.55;1779233;80;21140;-83
2021/06/13 07:51:38;;;;;;;15.83;4.42;;;;;;;15.51;78.59;99973.09;1777033;79;20924;-80
2021/06/13 07:54:05;;;;;;;16.20;4.67;;;;;;;15.47;77.69;99978.47;1779116;79;21328;-82
2021/06/13 07:56:31;;;;;;;16.42;5.03;;;;;;;15.47;77.43;99967.31;1774078;79;21156;-83
2021/06/13 07:58:56;;;;;;;15.48;4.15;;;;;;;15.64;77.38;99975.84;1773477;80;20999;-83
2021/06/13 08:01:22;;;;;;;16.77;4.83;;;;;;;15.55;76.58;99993.80;1775587;79;20994;-85
2021/06/13 08:03:48;;;;;;;13.38;3.95;;;;;;;15.50;76.30;100004.19;1774311;79;21237;-84
2021/06/13 08:06:13;;;;;;;14.05;4.17;;;;;;;15.59;75.59;100003.55;1777416;80;20856;-83
2021/06/13 08:08:39;;;;;;;14.35;4.22;;;;;;;15.51;75.44;99993.86;1778075;80;21242;-83
2021/06/13 08:11:08;;;;;;;12.50;4.03;;;;;;;15.41;75.92;100007.51;1771885;79;22156;-84
2021/06/13 08:13:33;;;;;;;15.78;4.90;;;;;;;15.26;76.28;99993.45;1780968;79;21138;-82
2021/06/13 08:15:59;;;;;;;14.00;4.10;;;;;;;15.36;76.53;99991.27;1782786;79;20885;-83
2021/06/13 08:18:26;;;;;;;14.33;4.40;;;;;;;15.45;76.89;100005.28;1778816;79;20963;-86
2021/06/13 08:20:52;;;;;;;15.50;5.73;;;;;;;15.39;77.09;100001.53;1779189;79;21121;-84
2021/06/13 08:23:18;;;;;;;13.60;4.85;;;;;;;15.57;77.39;99998.42;1779116;79;21173;-86
2021/06/13 08:25:44;;;;;;;15.53;4.67;;;;;;;15.74;76.66;99994.97;1771701;79;21063;-84
2021/06/13 08:28:10;;;;;;;14.15;4.65;;;;;;;15.51;75.70;99998.38;1778596;79;21070;-81
2021/06/13 08:30:35;;;;;;;13.25;4.12;;;;;;;15.66;75.58;100002.27;1779633;79;21251;-83
2021/06/13 08:33:01;;;;;;;11.38;4.47;;;;;;;15.70;75.65;100000.35;1775600;80;20857;-82
2021/06/13 08:35:27;;;;;;;13.00;4.53;;;;;;;15.67;75.51;100005.25;1773566;79;21042;-84
2021/06/13 08:37:54;;;;;;;15.45;4.80;;;;;;;15.87;75.63;99998.77;1777791;79;21293;-84
2021/06/13 08:40:20;;;;;;;13.28;4.80;;;;;;;16.10;75.17;100000.66;1777547;79;20944;-87
2021/06/13 08:42:46;;;;;;;12.85;4.60;;;;;;;16.12;74.73;100023.91;1776557;80;21081;-84
2021/06/13 08:45:13;;;;;;;13.32;4.58;;;;;;;16.12;73.84;100025.77;1775616;79;21013;-85
2021/06/13 08:47:39;;;;;;;13.35;4.40;;;;;;;16.11;73.76;100030.28;1778213;79;21030;-87
2021/06/13 08:50:25;;;;;;;17.42;4.60;;;;;;;16.05;73.93;100032.39;1776359;80;21605;-82
2021/06/13 08:52:51;;;;;;;12.68;4.40;;;;;;;15.89;74.38;100030.83;1775968;80;21075;-83
2021/06/13 08:55:17;;;;;;;15.55;4.58;;;;;;;16.13;74.36;100024.23;1770339;80;21794;-88
2021/06/13 08:57:44;;;;;;;11.90;4.53;;;;;;;16.17;74.44;100031.84;1777150;79;21066;-85
2021/06/13 09:00:13;;;;;;;14.10;4.37;;;;;;;16.09;74.79;100029.63;1778105;79;21138;-85
2021/06/13 09:02:40;;;;;;;13.58;4.55;;;;;;;16.09;74.71;100041.62;1764079;80;21086;-81
2021/06/13 09:05:07;;;;;;;11.83;4.25;;;;;;;15.96;73.82;100049.53;1782814;79;21089;-83
2021/06/13 09:07:34;;;;;;;15.10;4.87;;;;;;;15.98;73.86;100027.52;1778518;79;21093;-85
2021/06/13 09:10:08;;;;;;;14.98;4.50;;;;;;;15.92;74.37;100042.94;1782794;79;21932;-86
2021/06/13 09:12:36;;;;;;;14.68;5.00;;;;;;;15.98;74.09;100044.83;1776396;79;21058;-84
2021/06/13 09:15:03;;;;;;;13.60;4.42;;;;;;;15.90;74.88;100055.64;1781768;80;21086;-83
2021/06/13 09:17:29;;;;;;;11.75;4.47;;;;;;;15.76;74.74;100090.10;1778377;80;21898;-84
2021/06/13 09:20:18;;;;;;;14.83;4.33;;;;;;;15.85;74.81;100046.05;1776044;80;21574;-85
2021/06/13 09:22:42;;;;;;;13.83;4.55;;;;;;;15.64;75.42;100067.67;1777155;80;21537;-84
2021/06/13 09:25:13;;;;;;;11.60;4.67;;;;;;;15.78;75.43;100071.30;1772058;80;21054;-82
2021/06/13 09:27:40;;;;;;;17.10;5.25;;;;;;;15.87;75.12;100055.50;1770919;80;22179;-82
2021/06/13 09:30:09;;;;;;;18.90;4.97;;;;;;;15.92;75.12;100058.92;1773184;80;21172;-81
2021/06/13 09:33:06;;;;;;;13.25;5.00;;;;;;;15.93;75.19;100065.91;1783697;80;21029;-84
2021/06/13 09:35:32;;;;;;;17.05;4.92;;;;;;;15.93;75.34;100096.53;1783013;79;21090;-82
2021/06/13 09:38:07;;;;;;;13.88;4.80;;;;;;;16.01;75.12;100068.41;1778956;80;21259;-82
2021/06/13 09:40:33;;;;;;;14.45;4.55;;;;;;;15.88;75.42;100101.59;1773740;80;21936;-84
2021/06/13 09:43:11;;;;;;;13.75;4.42;;;;;;;15.82;75.03;100097.03;1774416;79;21129;-84
2021/06/13 09:45:37;;;;;;;13.85;4.40;;;;;;;15.91;75.13;100122.52;1761314;80;21031;-84
2021/06/13 09:48:04;;;;;;;10.38;4.10;;;;;;;16.00;74.97;100088.06;1760192;80;21211;-84
2021/06/13 09:50:46;;;;;;;17.25;4.90;;;;;;;15.95;75.18;100119.79;1783437;79;21011;-88
2021/06/13 09:53:35;;;;;;;13.40;4.53;;;;;;;15.89;75.79;100108.58;1784937;80;21530;-84
2021/06/13 09:56:17;;;;;;;14.73;4.20;;;;;;;15.94;75.68;100095.50;1777577;79;21030;-83
2021/06/13 09:58:50;;;;;;;14.33;4.65;;;;;;;16.01;75.51;100104.38;1779900;80;21039;-91
2021/06/13 10:01:16;;;;;;;14.80;4.00;;;;;;;16.02;75.57;100110.02;1780539;80;21509;-87
2021/06/13 10:03:46;;;;;;;13.08;4.10;;;;;;;16.10;75.62;100088.56;1777439;79;21705;-85
2021/06/13 10:06:10;;;;;;;13.18;4.47;;;;;;;16.22;75.21;100090.68;1779710;80;40161;-84
2021/06/13 10:08:36;;;;;;;13.98;4.58;;;;;;;16.29;74.16;100092.89;1775594;79;21144;-88
2021/06/13 10:11:04;;;;;;;15.88;4.83;;;;;;;16.50;74.06;100096.82;1774326;80;21014;-88
2021/06/13 10:13:56;;;;;;;12.18;4.70;;;;;;;16.46;73.43;100100.88;1776938;79;21185;-84
2021/06/13 10:16:31;;;;;;;15.48;4.37;;;;;;;16.63;73.02;100091.25;1780106;79;21027;-91
2021/06/13 10:19:01;;;;;;;16.95;4.62;;;;;;;16.65;72.83;100109.20;1782861;80;21157;-87
2021/06/13 10:21:43;;;;;;;12.40;3.87;;;;;;;16.52;72.81;100135.28;1774222;80;21117;-88
2021/06/13 10:24:12;;;;;;;17.50;4.30;;;;;;;16.46;72.34;100106.22;1775969;79;21082;-87
2021/06/13 10:26:42;;;;;;;15.43;4.37;;;;;;;16.49;72.52;100116.48;1783519;79;21570;-88
2021/06/13 10:29:09;;;;;;;15.40;4.30;;;;;;;16.32;72.47;100121.30;1778879;79;21502;-88
2021/06/13 10:31:35;;;;;;;12.53;4.15;;;;;;;16.38;72.64;100109.05;1775727;79;21093;-87
2021/06/13 10:34:01;;;;;;;17.32;4.67;;;;;;;16.48;72.31;100109.53;1759095;80;20968;-87
2021/06/13 10:36:29;;;;;;;13.15;4.28;;;;;;;16.53;72.23;100116.09;1773595;80;21415;-87
2021/06/13 10:38:55;;;;;;;12.18;3.98;;;;;;;16.49;72.47;100136.48;1772384;79;21018;-89
2021/06/13 10:41:21;;;;;;;12.65;3.95;;;;;;;16.54;72.08;100123.09;1770788;80;20964;-88
2021/06/13 10:43:46;;;;;;;16.23;4.22;;;;;;;16.61;72.11;100115.93;1781868;80;21115;-89
2021/06/13 10:46:19;;;;;;;14.00;4.30;;;;;;;16.66;71.99;100132.18;1778958;79;20883;-86
2021/06/13 10:48:51;;;;;;;14.85;4.42;;;;;;;16.51;72.16;100137.12;1774962;80;21183;-84
2021/06/13 10:51:38;;;;;;;14.25;4.10;;;;;;;16.65;71.80;100131.86;1776997;79;21070;-90
2021/06/13 10:54:26;;;;;;;12.28;3.85;;;;;;;16.62;72.05;100138.91;1783085;79;20988;-88
2021/06/13 10:56:54;;;;;;;15.75;4.20;;;;;;;16.70;72.00;100134.75;1783175;80;21114;-86
2021/06/13 10:59:21;;;;;;;14.83;4.33;;;;;;;16.73;71.95;100138.36;1779346;80;20990;-89
2021/06/13 11:02:09;;;;;;;21.50;4.83;;;;;;;16.59;72.47;100146.78;1759843;79;21030;-90
2021/06/13 11:05:01;;;;;;;16.30;4.87;;;;;;;16.56;72.45;100171.69;1774417;80;21529;-92
2021/06/13 11:07:40;;;;;;;16.07;4.00;;;;;;;16.59;72.49;100143.30;1776691;79;21477;-86
2021/06/13 11:10:21;;;;;;;14.33;3.92;;;;;;;16.73;72.41;100137.55;1783944;79;21198;-95
2021/06/13 11:12:59;;;;;;;11.97;4.58;;;;;;;16.96;71.83;100122.61;1772254;79;21038;-92
2021/06/13 11:15:41;;;;;;;15.30;4.83;;;;;;;17.16;71.24;100132.84;1776198;79;21078;-87
2021/06/13 11:18:22;;;;;;;13.00;3.75;;;;;;;17.33;71.00;100116.48;1777274;79;21201;-90
2021/06/13 11:21:06;;;;;;;14.15;4.03;;;;;;;17.48;69.94;100142.98;1782583;79;20962;-89
2021/06/13 11:23:36;;;;;;;14.85;4.00;;;;;;;17.52;69.48;100147.73;1776322;80;20998;-91
2021/06/13 11:26:05;;;;;;;14.78;3.90;;;;;;;17.48;68.58;100142.98;1775170;80;21029;-88
2021/06/13 11:28:41;;;;;;;10.23;3.67;;;;;;;17.47;68.49;100174.73;1763645;80;20904;-88
2021/06/13 11:31:15;;;;;;;14.93;4.10;;;;;;;17.67;67.13;100146.75;1774294;79;21513;-86
2021/06/13 11:33:50;;;;;;;18.35;3.83;;;;;;;17.94;67.09;100127.09;1770947;80;21041;-90
2021/06/13 11:36:22;;;;;;;15.28;4.00;;;;;;;18.07;66.67;100133.43;1778462;80;21348;-87